createdAt,value
2018-06-09T00:00:44.888Z,18.53
2018-06-09T00:01:44.952Z,18.49
2018-06-09T00:02:45.058Z,18.53
2018-06-09T00:03:45.075Z,18.59
2018-06-09T00:04:45.139Z,18.62
2018-06-09T00:05:45.199Z,18.62
2018-06-09T00:06:45.260Z,18.59
2018-06-09T00:07:45.322Z,18.54
2018-06-09T00:08:45.385Z,18.62
2018-06-09T00:09:45.697Z,18.46
2018-06-09T00:10:45.510Z,18.47
2018-06-09T00:11:45.569Z,18.49
2018-06-09T00:12:45.632Z,18.44
2018-06-09T00:13:45.693Z,18.49
2018-06-09T00:14:45.754Z,18.54
2018-06-09T00:15:45.819Z,18.62
2018-06-09T00:16:45.880Z,18.47
2018-06-09T00:17:45.944Z,18.44
2018-06-09T00:18:46.003Z,18.32
2018-06-09T00:19:46.065Z,18.32
2018-06-09T00:20:46.126Z,18.31
2018-06-09T00:21:46.190Z,18.35
2018-06-09T00:22:46.252Z,18.20
2018-06-09T00:23:46.313Z,18.21
2018-06-09T00:24:46.374Z,18.32
2018-06-09T00:25:46.435Z,18.26
2018-06-09T00:26:46.499Z,18.25
2018-06-09T00:27:46.560Z,18.31
2018-06-09T00:28:46.622Z,18.20
2018-06-09T00:29:46.683Z,18.21
2018-06-09T00:30:46.745Z,18.23
2018-06-09T00:31:46.806Z,18.23
2018-06-09T00:32:46.869Z,18.29
2018-06-09T00:33:46.930Z,18.25
2018-06-09T00:34:46.992Z,18.25
2018-06-09T00:35:47.063Z,18.25
2018-06-09T00:36:47.366Z,18.23
2018-06-09T00:37:47.179Z,18.28
2018-06-09T00:38:47.239Z,18.31
2018-06-09T00:39:47.300Z,18.17
2018-06-09T00:40:47.363Z,18.26
2018-06-09T00:41:47.424Z,18.32
2018-06-09T00:42:47.486Z,18.28
2018-06-09T00:43:47.547Z,18.23
2018-06-09T00:44:47.609Z,18.20
2018-06-09T00:45:47.671Z,18.13
2018-06-09T00:46:47.733Z,18.10
2018-06-09T00:47:47.945Z,18.11
2018-06-09T00:48:47.856Z,18.11
2018-06-09T00:49:47.918Z,17.96
2018-06-09T00:50:47.979Z,18.01
2018-06-09T00:51:48.041Z,18.16
2018-06-09T00:52:48.105Z,18.14
2018-06-09T00:53:48.166Z,18.09
2018-06-09T00:54:48.227Z,18.05
2018-06-09T00:55:48.291Z,18.05
2018-06-09T00:56:48.354Z,17.98
2018-06-09T00:57:48.412Z,17.94
2018-06-09T00:58:48.724Z,17.89
2018-06-09T00:59:48.536Z,17.77
2018-06-09T01:00:48.596Z,17.74
2018-06-09T01:01:48.659Z,17.79
2018-06-09T01:02:48.720Z,17.77
2018-06-09T01:03:48.783Z,17.80
2018-06-09T01:04:48.844Z,17.79
2018-06-09T01:05:48.906Z,17.84
2018-06-09T01:06:48.967Z,17.86
2018-06-09T01:07:49.029Z,17.98
2018-06-09T01:08:49.090Z,17.96
2018-06-09T01:09:49.153Z,17.95
2018-06-09T01:10:49.215Z,17.92
2018-06-09T01:11:49.275Z,17.87
2018-06-09T01:12:49.339Z,17.91
2018-06-09T01:13:49.400Z,17.95
2018-06-09T01:14:49.460Z,17.95
2018-06-09T01:15:49.524Z,18.05
2018-06-09T01:16:49.585Z,17.96
2018-06-09T01:17:49.644Z,17.87
2018-06-09T01:18:49.714Z,17.81
2018-06-09T01:19:49.766Z,17.86
2018-06-09T01:20:49.830Z,17.83
2018-06-09T01:21:49.895Z,17.86
2018-06-09T01:22:49.954Z,17.96
2018-06-09T01:23:50.017Z,17.99
2018-06-09T01:24:50.093Z,17.98
2018-06-09T01:25:50.137Z,17.87
2018-06-09T01:26:50.198Z,17.83
2018-06-09T01:27:50.260Z,17.83
2018-06-09T01:28:50.323Z,17.96
2018-06-09T01:29:50.385Z,17.81
2018-06-09T01:30:50.448Z,17.87
2018-06-09T01:31:50.507Z,17.87
2018-06-09T01:32:50.569Z,17.66
2018-06-09T01:33:50.629Z,17.62
2018-06-09T01:34:50.690Z,17.62
2018-06-09T01:35:50.757Z,17.73
2018-06-09T01:36:50.813Z,17.65
2018-06-09T01:37:50.876Z,17.68
2018-06-09T01:38:50.937Z,17.71
2018-06-09T01:39:50.998Z,17.79
2018-06-09T01:40:51.059Z,17.86
2018-06-09T01:41:51.126Z,17.80
2018-06-09T01:42:51.181Z,17.70
2018-06-09T01:43:51.243Z,17.65
2018-06-09T01:44:51.305Z,17.77
2018-06-09T01:45:51.369Z,17.79
2018-06-09T01:46:51.426Z,17.76
2018-06-09T01:47:51.488Z,17.80
2018-06-09T01:48:51.550Z,17.70
2018-06-09T01:49:51.613Z,17.66
2018-06-09T01:50:51.674Z,17.77
2018-06-09T01:51:51.735Z,17.80
2018-06-09T01:52:51.797Z,17.65
2018-06-09T01:53:51.857Z,17.62
2018-06-09T01:54:51.918Z,17.60
2018-06-09T01:55:52.231Z,17.60
2018-06-09T01:56:52.042Z,17.60
2018-06-09T01:57:52.103Z,17.60
2018-06-09T01:58:52.164Z,17.62
2018-06-09T01:59:52.227Z,17.70
2018-06-09T02:00:52.291Z,17.73
2018-06-09T02:01:52.349Z,17.60
2018-06-09T02:02:52.410Z,17.57
2018-06-09T02:03:52.471Z,17.68
2018-06-09T02:04:52.532Z,17.63
2018-06-09T02:05:52.594Z,17.58
2018-06-09T02:06:52.655Z,17.55
2018-06-09T02:07:52.720Z,17.49
2018-06-09T02:08:52.778Z,17.55
2018-06-09T02:09:52.841Z,17.47
2018-06-09T02:10:52.900Z,17.62
2018-06-09T02:11:52.963Z,17.55
2018-06-09T02:12:53.025Z,17.54
2018-06-09T02:13:53.084Z,17.55
2018-06-09T02:14:53.146Z,17.55
2018-06-09T02:15:53.206Z,17.51
2018-06-09T02:16:53.272Z,17.53
2018-06-09T02:17:53.331Z,17.53
2018-06-09T02:18:53.391Z,17.55
2018-06-09T02:19:53.453Z,17.57
2018-06-09T02:20:53.515Z,17.51
2018-06-09T02:21:53.595Z,17.66
2018-06-09T02:22:53.638Z,17.54
2018-06-09T02:23:53.699Z,17.54
2018-06-09T02:24:53.780Z,17.54
2018-06-09T02:25:53.822Z,17.53
2018-06-09T02:26:53.882Z,17.47
2018-06-09T02:27:53.947Z,17.54
2018-06-09T02:28:54.007Z,17.47
2018-06-09T02:29:54.067Z,17.53
2018-06-09T02:30:54.131Z,17.43
2018-06-09T02:31:54.191Z,17.49
2018-06-09T02:32:54.254Z,17.39
2018-06-09T02:33:54.313Z,17.43
2018-06-09T02:34:54.372Z,17.42
2018-06-09T02:35:54.435Z,17.39
2018-06-09T02:36:54.496Z,17.40
2018-06-09T02:37:54.557Z,17.39
2018-06-09T02:38:54.619Z,17.45
2018-06-09T02:39:54.680Z,17.58
2018-06-09T02:40:54.740Z,17.58
2018-06-09T02:41:54.804Z,17.51
2018-06-09T02:42:54.864Z,17.57
2018-06-09T02:43:54.927Z,17.54
2018-06-09T02:44:54.987Z,17.45
2018-06-09T02:45:55.048Z,17.39
2018-06-09T02:46:55.109Z,17.39
2018-06-09T02:47:55.170Z,17.39
2018-06-09T02:48:55.232Z,17.39
2018-06-09T02:49:55.300Z,17.39
2018-06-09T02:50:55.355Z,17.36
2018-06-09T02:51:55.414Z,17.33
2018-06-09T02:52:55.477Z,17.36
2018-06-09T02:53:55.540Z,17.38
2018-06-09T02:54:55.601Z,17.33
2018-06-09T02:55:55.661Z,17.30
2018-06-09T02:56:55.723Z,17.27
2018-06-09T02:57:55.785Z,17.22
2018-06-09T02:58:55.844Z,17.38
2018-06-09T02:59:55.904Z,17.36
2018-06-09T03:00:55.970Z,17.51
2018-06-09T03:01:56.029Z,17.45
2018-06-09T03:02:56.089Z,17.47
2018-06-09T03:03:56.150Z,17.35
2018-06-09T03:04:56.212Z,17.39
2018-06-09T03:05:56.273Z,17.46
2018-06-09T03:06:56.334Z,17.36
2018-06-09T03:07:56.396Z,17.36
2018-06-09T03:08:56.458Z,17.38
2018-06-09T03:09:56.520Z,17.27
2018-06-09T03:10:56.579Z,17.35
2018-06-09T03:11:56.640Z,17.35
2018-06-09T03:12:56.701Z,17.36
2018-06-09T03:13:56.764Z,17.28
2018-06-09T03:14:56.824Z,17.30
2018-06-09T03:15:56.885Z,17.32
2018-06-09T03:16:56.946Z,17.33
2018-06-09T03:17:57.258Z,17.38
2018-06-09T03:18:57.069Z,17.27
2018-06-09T03:19:57.128Z,17.28
2018-06-09T03:20:57.193Z,17.32
2018-06-09T03:21:57.253Z,17.28
2018-06-09T03:22:57.316Z,17.21
2018-06-09T03:23:57.380Z,17.22
2018-06-09T03:24:57.436Z,17.28
2018-06-09T03:25:57.499Z,17.30
2018-06-09T03:26:57.558Z,17.30
2018-06-09T03:27:57.619Z,17.39
2018-06-09T03:28:57.680Z,17.36
2018-06-09T03:29:57.743Z,17.32
2018-06-09T03:30:57.802Z,17.28
2018-06-09T03:31:57.864Z,17.33
2018-06-09T03:32:57.925Z,17.32
2018-06-09T03:33:57.987Z,17.36
2018-06-09T03:34:58.047Z,17.33
2018-06-09T03:35:58.109Z,17.32
2018-06-09T03:36:58.171Z,17.25
2018-06-09T03:37:58.233Z,17.30
2018-06-09T03:38:58.292Z,17.30
2018-06-09T03:39:58.352Z,17.18
2018-06-09T03:40:58.665Z,17.33
2018-06-09T03:41:58.476Z,17.15
2018-06-09T03:42:58.537Z,17.20
2018-06-09T03:43:58.618Z,17.12
2018-06-09T03:44:58.698Z,17.07
2018-06-09T03:45:58.721Z,17.07
2018-06-09T03:46:58.781Z,17.10
2018-06-09T03:47:58.842Z,17.07
2018-06-09T03:48:58.905Z,17.06
2018-06-09T03:49:58.965Z,17.15
2018-06-09T03:50:59.026Z,17.25
2018-06-09T03:51:59.089Z,17.32
2018-06-09T03:52:59.148Z,17.27
2018-06-09T03:53:59.256Z,17.21
2018-06-09T03:54:59.270Z,17.20
2018-06-09T03:55:59.331Z,17.15
2018-06-09T03:56:59.393Z,17.18
2018-06-09T03:57:59.454Z,17.22
2018-06-09T03:58:59.515Z,17.17
2018-06-09T03:59:59.576Z,17.15
2018-06-09T04:00:59.637Z,17.14
2018-06-09T04:01:59.700Z,17.21
2018-06-09T04:02:59.759Z,17.27
2018-06-09T04:03:59.821Z,17.32
2018-06-09T04:04:59.882Z,17.28
2018-06-09T04:05:59.943Z,17.22
2018-06-09T04:07:00.006Z,17.32
2018-06-09T04:08:00.066Z,17.27
2018-06-09T04:09:00.128Z,17.28
2018-06-09T04:10:00.189Z,17.27
2018-06-09T04:11:00.249Z,17.25
2018-06-09T04:12:00.310Z,17.20
2018-06-09T04:13:00.374Z,17.18
2018-06-09T04:14:00.434Z,17.22
2018-06-09T04:15:00.493Z,17.22
2018-06-09T04:16:00.555Z,17.33
2018-06-09T04:17:00.617Z,17.28
2018-06-09T04:18:00.678Z,17.35
2018-06-09T04:19:00.740Z,17.35
2018-06-09T04:20:00.951Z,17.39
2018-06-09T04:21:00.864Z,17.36
2018-06-09T04:22:00.924Z,17.36
2018-06-09T04:23:00.987Z,17.36
2018-06-09T04:24:01.046Z,17.25
2018-06-09T04:25:01.110Z,17.33
2018-06-09T04:26:01.168Z,17.33
2018-06-09T04:27:01.229Z,17.38
2018-06-09T04:28:01.291Z,17.28
2018-06-09T04:29:01.352Z,17.42
2018-06-09T04:30:01.415Z,17.38
2018-06-09T04:31:01.477Z,17.32
2018-06-09T04:32:01.537Z,17.33
2018-06-09T04:33:01.597Z,17.51
2018-06-09T04:34:01.697Z,17.35
2018-06-09T04:35:01.720Z,17.45
2018-06-09T04:36:01.782Z,17.51
2018-06-09T04:37:01.844Z,17.47
2018-06-09T04:38:01.906Z,17.38
2018-06-09T04:39:01.966Z,17.47
2018-06-09T04:40:02.049Z,17.60
2018-06-09T04:41:02.088Z,17.54
2018-06-09T04:42:02.150Z,17.65
2018-06-09T04:43:02.216Z,17.53
2018-06-09T04:44:02.274Z,17.55
2018-06-09T04:45:02.334Z,17.60
2018-06-09T04:46:02.437Z,17.58
2018-06-09T04:47:02.457Z,17.62
2018-06-09T04:48:02.518Z,17.63
2018-06-09T04:49:02.580Z,17.54
2018-06-09T04:50:02.645Z,17.58
2018-06-09T04:51:02.709Z,17.68
2018-06-09T04:52:02.765Z,17.66
2018-06-09T04:53:02.827Z,17.70
2018-06-09T04:54:03.281Z,17.79
2018-06-09T04:55:02.950Z,17.86
2018-06-09T04:56:03.012Z,17.95
2018-06-09T04:57:03.074Z,17.83
2018-06-09T04:58:03.135Z,17.86
2018-06-09T04:59:03.196Z,17.91
2018-06-09T05:00:03.260Z,17.92
2018-06-09T05:01:03.319Z,17.95
2018-06-09T05:02:03.383Z,17.91
2018-06-09T05:03:03.443Z,17.91
2018-06-09T05:04:03.506Z,17.91
2018-06-09T05:05:03.567Z,17.96
2018-06-09T05:06:03.629Z,18.14
2018-06-09T05:07:03.691Z,18.11
2018-06-09T05:08:03.753Z,18.14
2018-06-09T05:09:03.816Z,18.10
2018-06-09T05:10:03.878Z,18.14
2018-06-09T05:11:03.939Z,18.21
2018-06-09T05:12:04.001Z,18.29
2018-06-09T05:13:04.083Z,18.16
2018-06-09T05:14:04.125Z,18.16
2018-06-09T05:15:04.186Z,18.25
2018-06-09T05:16:04.247Z,18.21
2018-06-09T05:17:04.313Z,18.31
2018-06-09T05:18:04.374Z,18.35
2018-06-09T05:19:04.435Z,18.39
2018-06-09T05:20:04.497Z,18.47
2018-06-09T05:21:04.560Z,18.41
2018-06-09T05:22:04.622Z,18.50
2018-06-09T05:23:04.684Z,18.53
2018-06-09T05:24:04.749Z,18.59
2018-06-09T05:25:04.810Z,18.53
2018-06-09T05:26:04.870Z,18.57
2018-06-09T05:27:04.934Z,18.71
2018-06-09T05:28:05.047Z,18.76
2018-06-09T05:29:05.058Z,18.69
2018-06-09T05:30:05.121Z,18.72
2018-06-09T05:31:05.184Z,18.87
2018-06-09T05:32:05.244Z,18.93
2018-06-09T05:33:05.306Z,18.90
2018-06-09T05:34:05.370Z,18.93
2018-06-09T05:35:05.432Z,19.05
2018-06-09T05:36:05.494Z,19.09
2018-06-09T05:37:05.807Z,19.10
2018-06-09T05:38:05.620Z,19.02
2018-06-09T05:39:05.681Z,19.12
2018-06-09T05:40:05.749Z,19.09
2018-06-09T05:41:05.806Z,19.07
2018-06-09T05:42:05.869Z,19.02
2018-06-09T05:43:05.933Z,19.06
2018-06-09T05:44:06.000Z,19.02
2018-06-09T05:45:06.057Z,18.99
2018-06-09T05:46:06.123Z,19.13
2018-06-09T05:47:06.181Z,19.01
2018-06-09T05:48:06.245Z,19.06
2018-06-09T05:49:06.308Z,19.10
2018-06-09T05:50:06.371Z,19.12
2018-06-09T05:51:06.433Z,19.17
2018-06-09T05:52:06.496Z,19.15
2018-06-09T05:53:06.558Z,19.28
2018-06-09T05:54:06.621Z,19.13
2018-06-09T05:55:06.684Z,19.17
2018-06-09T05:56:06.750Z,19.31
2018-06-09T05:57:06.810Z,19.34
2018-06-09T05:58:06.872Z,19.34
2018-06-09T05:59:06.936Z,19.31
2018-06-09T06:00:06.998Z,19.31
2018-06-09T06:01:07.085Z,19.32
2018-06-09T06:02:07.123Z,19.35
2018-06-09T06:03:07.219Z,19.28
2018-06-09T06:04:07.252Z,19.40
2018-06-09T06:05:07.311Z,19.45
2018-06-09T06:06:07.377Z,19.46
2018-06-09T06:07:07.441Z,19.49
2018-06-09T06:08:07.504Z,19.57
2018-06-09T06:09:07.566Z,19.58
2018-06-09T06:10:07.660Z,19.53
2018-06-09T06:11:08.010Z,19.64
2018-06-09T06:12:07.752Z,19.58
2018-06-09T06:13:07.813Z,19.55
2018-06-09T06:14:07.878Z,19.60
2018-06-09T06:15:07.939Z,19.57
2018-06-09T06:16:08.009Z,19.52
2018-06-09T06:17:08.065Z,19.50
2018-06-09T06:18:08.128Z,19.53
2018-06-09T06:19:08.194Z,19.62
2018-06-09T06:20:08.253Z,19.68
2018-06-09T06:21:08.317Z,19.79
2018-06-09T06:22:08.380Z,19.83
2018-06-09T06:23:08.442Z,19.95
2018-06-09T06:24:08.505Z,19.98
2018-06-09T06:25:08.568Z,19.92
2018-06-09T06:26:08.632Z,20.01
2018-06-09T06:27:08.694Z,20.05
2018-06-09T06:28:08.756Z,20.16
2018-06-09T06:29:08.821Z,20.22
2018-06-09T06:30:08.885Z,20.17
2018-06-09T06:31:08.948Z,20.16
2018-06-09T06:32:09.010Z,20.27
2018-06-09T06:33:09.073Z,20.34
2018-06-09T06:34:09.137Z,20.27
2018-06-09T06:35:09.450Z,20.38
2018-06-09T06:36:09.264Z,20.48
2018-06-09T06:37:09.327Z,20.50
2018-06-09T06:38:09.391Z,20.63
2018-06-09T06:39:09.453Z,20.61
2018-06-09T06:40:09.527Z,20.60
2018-06-09T06:41:09.831Z,20.54
2018-06-09T06:42:09.645Z,20.44
2018-06-09T06:43:09.708Z,20.64
2018-06-09T06:44:09.773Z,20.68
2018-06-09T06:45:09.836Z,20.83
2018-06-09T06:46:09.900Z,20.81
2018-06-09T06:47:10.012Z,20.91
2018-06-09T06:48:10.028Z,20.93
2018-06-09T06:49:10.091Z,20.90
2018-06-09T06:50:10.155Z,20.91
2018-06-09T06:51:10.219Z,20.97
2018-06-09T06:52:10.283Z,20.97
2018-06-09T06:53:10.347Z,20.93
2018-06-09T06:54:10.426Z,21.05
2018-06-09T06:55:10.478Z,21.15
2018-06-09T06:56:10.540Z,21.33
2018-06-09T06:57:10.605Z,21.43
2018-06-09T06:58:10.821Z,21.43
2018-06-09T06:59:10.734Z,21.48
2018-06-09T07:00:10.798Z,21.52
2018-06-09T07:01:10.864Z,21.66
2018-06-09T07:02:10.951Z,21.66
2018-06-09T07:03:10.992Z,21.73
2018-06-09T07:04:11.208Z,21.67
2018-06-09T07:05:11.122Z,21.73
2018-06-09T07:06:11.187Z,21.67
2018-06-09T07:07:11.255Z,21.77
2018-06-09T07:08:11.317Z,21.86
2018-06-09T07:09:11.383Z,21.81
2018-06-09T07:10:11.448Z,21.74
2018-06-09T07:11:11.513Z,21.74
2018-06-09T07:12:11.577Z,21.75
2018-06-09T07:13:11.643Z,21.82
2018-06-09T07:14:11.707Z,21.96
2018-06-09T07:15:11.773Z,22.14
2018-06-09T07:16:11.838Z,22.09
2018-06-09T07:17:11.903Z,22.05
2018-06-09T07:18:11.968Z,22.05
2018-06-09T07:19:12.033Z,22.17
2018-06-09T07:20:12.102Z,22.19
2018-06-09T07:21:12.166Z,22.19
2018-06-09T07:22:12.236Z,22.29
2018-06-09T07:23:12.295Z,22.20
2018-06-09T07:24:12.360Z,22.27
2018-06-09T07:25:12.425Z,22.30
2018-06-09T07:26:12.491Z,22.31
2018-06-09T07:27:12.554Z,22.17
2018-06-09T07:28:12.621Z,22.27
2018-06-09T07:29:12.687Z,22.30
2018-06-09T07:30:12.753Z,22.26
2018-06-09T07:31:12.818Z,22.36
2018-06-09T07:32:13.133Z,22.26
2018-06-09T07:33:12.949Z,22.29
2018-06-09T07:34:13.014Z,22.49
2018-06-09T07:35:13.136Z,22.64
2018-06-09T07:36:13.146Z,22.76
2018-06-09T07:37:13.213Z,22.82
2018-06-09T07:38:13.278Z,22.93
2018-06-09T07:39:13.343Z,22.93
2018-06-09T07:40:13.409Z,23.03
2018-06-09T07:41:13.475Z,23.06
2018-06-09T07:42:13.541Z,23.09
2018-06-09T07:43:13.606Z,23.16
2018-06-09T07:44:13.675Z,23.23
2018-06-09T07:45:13.739Z,23.29
2018-06-09T07:46:13.805Z,23.39
2018-06-09T07:47:13.871Z,23.39
2018-06-09T07:48:13.937Z,23.49
2018-06-09T07:49:14.003Z,23.64
2018-06-09T07:50:14.070Z,23.68
2018-06-09T07:51:14.136Z,23.77
2018-06-09T07:52:14.203Z,23.81
2018-06-09T07:53:14.271Z,23.94
2018-06-09T07:54:14.336Z,23.99
2018-06-09T07:55:14.401Z,23.92
2018-06-09T07:56:14.474Z,23.97
2018-06-09T07:57:14.534Z,23.94
2018-06-09T07:58:14.604Z,23.94
2018-06-09T07:59:14.669Z,23.97
2018-06-09T08:00:14.737Z,24.08
2018-06-09T08:01:14.802Z,23.93
2018-06-09T08:02:14.869Z,23.99
2018-06-09T08:03:14.936Z,23.97
2018-06-09T08:04:15.003Z,23.86
2018-06-09T08:05:15.748Z,23.96
2018-06-09T08:06:15.139Z,23.96
2018-06-09T08:07:15.204Z,23.96
2018-06-09T08:08:15.271Z,24.06
2018-06-09T08:09:15.337Z,24.15
2018-06-09T08:10:15.407Z,24.27
2018-06-09T08:11:15.474Z,24.30
2018-06-09T08:12:15.539Z,24.27
2018-06-09T08:13:15.632Z,24.21
2018-06-09T08:14:15.676Z,24.11
2018-06-09T08:15:15.739Z,24.06
2018-06-09T08:16:15.812Z,23.99
2018-06-09T08:17:15.876Z,24.08
2018-06-09T08:18:15.942Z,24.08
2018-06-09T08:19:16.012Z,24.14
2018-06-09T08:20:16.079Z,24.14
2018-06-09T08:21:16.144Z,24.37
2018-06-09T08:22:16.216Z,24.74
2018-06-09T08:23:16.529Z,24.87
2018-06-09T08:24:16.348Z,24.86
2018-06-09T08:25:16.413Z,24.89
2018-06-09T08:26:16.482Z,24.61
2018-06-09T08:27:16.550Z,24.52
2018-06-09T08:28:16.622Z,24.52
2018-06-09T08:29:16.685Z,24.53
2018-06-09T08:30:16.754Z,24.77
2018-06-09T08:31:16.853Z,24.71
2018-06-09T08:32:16.889Z,24.67
2018-06-09T08:33:16.956Z,24.86
2018-06-09T08:34:17.025Z,24.77
2018-06-09T08:35:17.092Z,24.87
2018-06-09T08:36:17.190Z,24.70
2018-06-09T08:37:17.229Z,24.71
2018-06-09T08:38:17.297Z,24.80
2018-06-09T08:39:17.739Z,24.80
2018-06-09T08:40:17.931Z,24.92
2018-06-09T08:41:17.501Z,24.93
2018-06-09T08:42:17.570Z,24.86
2018-06-09T08:43:17.636Z,24.86
2018-06-09T08:44:17.706Z,24.94
2018-06-09T08:45:17.773Z,25.08
2018-06-09T08:46:17.841Z,25.14
2018-06-09T08:47:17.910Z,25.29
2018-06-09T08:48:17.977Z,25.39
2018-06-09T08:49:18.051Z,25.31
2018-06-09T08:50:18.114Z,25.42
2018-06-09T08:51:18.180Z,25.54
2018-06-09T08:52:18.253Z,25.61
2018-06-09T08:53:18.319Z,25.67
2018-06-09T08:54:18.389Z,25.97
2018-06-09T08:55:18.487Z,26.06
2018-06-09T08:56:18.532Z,25.94
2018-06-09T08:57:18.592Z,25.83
2018-06-09T08:58:18.661Z,25.71
2018-06-09T08:59:18.730Z,25.75
2018-06-09T09:00:18.798Z,25.86
2018-06-09T09:01:18.865Z,25.94
2018-06-09T09:02:18.937Z,26.12
2018-06-09T09:03:19.004Z,26.01
2018-06-09T09:04:19.073Z,26.04
2018-06-09T09:05:19.140Z,26.13
2018-06-09T09:06:19.210Z,25.71
2018-06-09T09:07:19.279Z,25.85
2018-06-09T09:08:19.346Z,26.01
2018-06-09T09:09:19.452Z,26.16
2018-06-09T09:10:19.485Z,26.36
2018-06-09T09:11:19.552Z,26.61
2018-06-09T09:12:19.622Z,26.79
2018-06-09T09:13:19.691Z,26.91
2018-06-09T09:14:19.760Z,26.93
2018-06-09T09:15:19.829Z,26.81
2018-06-09T09:16:19.898Z,26.71
2018-06-09T09:17:19.969Z,26.87
2018-06-09T09:18:20.039Z,26.78
2018-06-09T09:19:20.105Z,26.71
2018-06-09T09:20:20.175Z,26.71
2018-06-09T09:21:20.246Z,26.87
2018-06-09T09:22:20.316Z,26.69
2018-06-09T09:23:20.384Z,26.68
2018-06-09T09:24:20.455Z,26.72
2018-06-09T09:25:20.525Z,26.75
2018-06-09T09:26:20.594Z,27.13
2018-06-09T09:27:20.664Z,27.13
2018-06-09T09:28:20.734Z,27.21
2018-06-09T09:29:20.809Z,26.28
2018-06-09T09:30:20.873Z,26.31
2018-06-09T09:31:20.942Z,26.59
2018-06-09T09:32:21.013Z,26.53
2018-06-09T09:33:21.083Z,26.35
2018-06-09T09:34:21.162Z,26.29
2018-06-09T09:35:21.222Z,26.42
2018-06-09T09:36:21.294Z,26.56
2018-06-09T09:37:21.370Z,26.44
2018-06-09T09:38:21.433Z,26.34
2018-06-09T09:39:21.505Z,26.23
2018-06-09T09:40:21.573Z,26.36
2018-06-09T09:41:21.648Z,26.27
2018-06-09T09:42:21.716Z,26.41
2018-06-09T09:43:21.784Z,26.56
2018-06-09T09:44:21.854Z,26.73
2018-06-09T09:45:21.924Z,26.76
2018-06-09T09:46:22.029Z,26.69
2018-06-09T09:47:22.065Z,26.75
2018-06-09T09:48:22.133Z,26.73
2018-06-09T09:49:22.205Z,26.98
2018-06-09T09:50:22.276Z,26.94
2018-06-09T09:51:22.593Z,26.78
2018-06-09T09:52:22.414Z,26.93
2018-06-09T09:53:22.484Z,26.90
2018-06-09T09:54:22.555Z,26.75
2018-06-09T09:55:22.623Z,26.71
2018-06-09T09:56:22.696Z,26.71
2018-06-09T09:57:22.764Z,26.79
2018-06-09T09:58:22.834Z,26.72
2018-06-09T09:59:22.904Z,26.73
2018-06-09T10:00:22.976Z,26.60
2018-06-09T10:01:23.043Z,26.60
2018-06-09T10:02:23.116Z,26.76
2018-06-09T10:03:23.183Z,26.91
2018-06-09T10:04:23.252Z,27.09
2018-06-09T10:05:23.322Z,27.27
2018-06-09T10:06:23.393Z,27.27
2018-06-09T10:07:23.461Z,27.02
2018-06-09T10:08:23.531Z,26.93
2018-06-09T10:09:23.611Z,26.87
2018-06-09T10:10:23.671Z,27.09
2018-06-09T10:11:23.740Z,27.01
2018-06-09T10:12:23.811Z,27.33
2018-06-09T10:13:24.131Z,27.38
2018-06-09T10:14:23.965Z,27.61
2018-06-09T10:15:24.020Z,27.45
2018-06-09T10:16:24.093Z,27.81
2018-06-09T10:17:24.162Z,28.06
2018-06-09T10:18:24.230Z,28.23
2018-06-09T10:19:24.301Z,28.20
2018-06-09T10:20:24.373Z,28.01
2018-06-09T10:21:24.443Z,27.53
2018-06-09T10:22:24.514Z,27.27
2018-06-09T10:23:24.583Z,27.87
2018-06-09T10:24:24.656Z,28.23
2018-06-09T10:25:24.732Z,27.76
2018-06-09T10:26:24.799Z,27.65
2018-06-09T10:27:24.869Z,27.58
2018-06-09T10:28:24.939Z,27.25
2018-06-09T10:29:25.011Z,27.38
2018-06-09T10:30:25.084Z,27.80
2018-06-09T10:31:25.154Z,28.21
2018-06-09T10:32:25.225Z,28.73
2018-06-09T10:33:25.300Z,28.95
2018-06-09T10:34:25.368Z,29.03
2018-06-09T10:35:25.439Z,29.25
2018-06-09T10:36:25.515Z,29.18
2018-06-09T10:37:25.584Z,29.36
2018-06-09T10:38:25.658Z,29.03
2018-06-09T10:39:25.728Z,28.36
2018-06-09T10:40:25.804Z,28.51
2018-06-09T10:41:25.873Z,29.12
2018-06-09T10:42:25.947Z,29.41
2018-06-09T10:43:26.019Z,29.39
2018-06-09T10:44:26.093Z,29.86
2018-06-09T10:45:26.170Z,30.07
2018-06-09T10:46:26.240Z,29.66
2018-06-09T10:47:26.313Z,30.03
2018-06-09T10:48:26.386Z,29.92
2018-06-09T10:49:26.461Z,30.15
2018-06-09T10:50:26.539Z,29.42
2018-06-09T10:51:27.356Z,28.55
2018-06-09T10:52:26.682Z,28.65
2018-06-09T10:53:26.756Z,29.14
2018-06-09T10:54:26.835Z,29.05
2018-06-09T10:55:26.907Z,28.98
2018-06-09T10:56:26.979Z,29.52
2018-06-09T10:57:27.112Z,29.84
2018-06-09T10:58:27.129Z,29.33
2018-06-09T10:59:27.202Z,29.21
2018-06-09T11:00:27.276Z,29.05
2018-06-09T11:01:27.350Z,29.88
2018-06-09T11:02:27.425Z,29.60
2018-06-09T11:03:27.497Z,29.37
2018-06-09T11:04:27.574Z,29.12
2018-06-09T11:05:27.647Z,29.73
2018-06-09T11:06:27.723Z,30.32
2018-06-09T11:07:27.799Z,30.73
2018-06-09T11:08:27.871Z,31.07
2018-06-09T11:09:27.948Z,31.37
2018-06-09T11:10:28.024Z,31.35
2018-06-09T11:11:28.098Z,31.68
2018-06-09T11:12:28.174Z,31.16
2018-06-09T11:13:28.249Z,30.48
2018-06-09T11:14:28.327Z,30.30
2018-06-09T11:15:28.402Z,30.10
2018-06-09T11:16:28.478Z,30.13
2018-06-09T11:17:28.553Z,30.13
2018-06-09T11:18:28.634Z,30.57
2018-06-09T11:19:28.705Z,30.96
2018-06-09T11:20:28.781Z,30.93
2018-06-09T11:21:28.857Z,30.88
2018-06-09T11:22:28.933Z,30.34
2018-06-09T11:23:29.009Z,30.03
2018-06-09T11:24:29.096Z,30.07
2018-06-09T11:25:29.161Z,30.23
2018-06-09T11:26:29.237Z,29.62
2018-06-09T11:27:29.312Z,29.74
2018-06-09T11:28:29.386Z,29.85
2018-06-09T11:29:29.464Z,30.06
2018-06-09T11:30:29.540Z,29.95
2018-06-09T11:31:29.613Z,30.10
2018-06-09T11:32:29.689Z,30.51
2018-06-09T11:33:29.767Z,30.90
2018-06-09T11:34:29.839Z,30.70
2018-06-09T11:35:29.914Z,30.48
2018-06-09T11:36:29.989Z,29.73
2018-06-09T11:37:30.067Z,28.97
2018-06-09T11:38:30.139Z,28.65
2018-06-09T11:39:30.216Z,29.29
2018-06-09T11:40:30.287Z,30.06
2018-06-09T11:41:30.365Z,30.75
2018-06-09T11:42:30.438Z,31.04
2018-06-09T11:43:30.512Z,31.15
2018-06-09T11:44:30.588Z,31.76
2018-06-09T11:45:30.663Z,32.05
2018-06-09T11:46:30.738Z,31.37
2018-06-09T11:47:30.813Z,31.49
2018-06-09T11:48:30.889Z,31.34
2018-06-09T11:49:30.963Z,31.90
2018-06-09T11:50:31.040Z,32.17
2018-06-09T11:51:31.116Z,32.56
2018-06-09T11:52:31.190Z,32.19
2018-06-09T11:53:31.267Z,32.44
2018-06-09T11:54:31.348Z,32.69
2018-06-09T11:55:31.416Z,32.87
2018-06-09T11:56:31.496Z,32.93
2018-06-09T11:57:31.570Z,32.27
2018-06-09T11:58:31.648Z,32.68
2018-06-09T11:59:31.723Z,32.63
2018-06-09T12:00:31.801Z,33.02
2018-06-09T12:01:31.878Z,33.15
2018-06-09T12:02:31.954Z,32.56
2018-06-09T12:03:32.031Z,32.65
2018-06-09T12:04:32.109Z,32.76
2018-06-09T12:05:32.495Z,32.22
2018-06-09T12:06:32.262Z,31.79
2018-06-09T12:07:32.341Z,31.98
2018-06-09T12:08:32.416Z,31.92
2018-06-09T12:09:32.494Z,31.92
2018-06-09T12:10:32.571Z,31.98
2018-06-09T12:11:32.651Z,31.92
2018-06-09T12:12:32.724Z,32.41
2018-06-09T12:13:32.801Z,33.17
2018-06-09T12:14:32.878Z,32.99
2018-06-09T12:15:32.956Z,32.88
2018-06-09T12:16:33.032Z,33.24
2018-06-09T12:17:33.110Z,33.18
2018-06-09T12:18:33.186Z,33.12
2018-06-09T12:19:33.262Z,32.78
2018-06-09T12:20:33.340Z,32.51
2018-06-09T12:21:33.417Z,33.15
2018-06-09T12:22:33.495Z,33.28
2018-06-09T12:23:33.572Z,33.55
2018-06-09T12:24:33.650Z,33.86
2018-06-09T12:25:33.728Z,33.97
2018-06-09T12:26:33.805Z,33.79
2018-06-09T12:27:33.882Z,34.03
2018-06-09T12:28:33.961Z,33.93
2018-06-09T12:29:34.289Z,34.30
2018-06-09T12:30:34.120Z,34.30
2018-06-09T12:31:34.195Z,33.94
2018-06-09T12:32:34.317Z,34.55
2018-06-09T12:33:34.352Z,34.50
2018-06-09T12:34:34.430Z,32.35
2018-06-09T12:35:34.659Z,31.67
2018-06-09T12:36:34.587Z,31.47
2018-06-09T12:37:34.671Z,32.21
2018-06-09T12:38:34.746Z,32.90
2018-06-09T12:39:34.823Z,33.12
2018-06-09T12:40:34.901Z,33.14
2018-06-09T12:41:34.981Z,33.17
2018-06-09T12:42:35.059Z,33.56
2018-06-09T12:43:35.135Z,33.09
2018-06-09T12:44:35.218Z,33.15
2018-06-09T12:45:35.297Z,32.76
2018-06-09T12:46:35.372Z,32.21
2018-06-09T12:47:35.452Z,31.31
2018-06-09T12:48:35.630Z,31.10
2018-06-09T12:49:35.606Z,30.78
2018-06-09T12:50:35.684Z,30.63
2018-06-09T12:51:36.023Z,30.67
2018-06-09T12:52:35.837Z,30.85
2018-06-09T12:53:35.913Z,30.73